Time;durP1;ratioP1;P1;durP2;ratioP2;P2;SDS_P1;SDS_P2;PMS_P1;PMS_P2;Temp;Humidity;BMP_temperature;BMP_pressure;BME280_temperature;BME280_humidity;BME280_pressure;Samples;Min_cycle;Max_cycle;Signal;HPM_P1;HPM_P2
2021/07/27 00:01:55;;;;;;;;;;;18.20;99.90;;;-145.59;100.00;63944.34;5058146;28;20359;-65
2021/07/27 00:04:20;;;;;;;;;;;18.20;99.90;;;-145.59;100.00;63944.34;5074936;28;19973;-66
2021/07/27 00:06:46;;;;;;;;;;;18.20;99.90;;;-145.59;100.00;63944.34;5076066;28;19920;-64
2021/07/27 00:09:12;;;;;;;;;;;18.10;99.90;;;-145.59;100.00;63944.34;5076150;28;19920;-69
2021/07/27 00:11:37;;;;;;;;;;;18.20;99.90;;;-145.59;100.00;63944.34;5091701;28;19920;-61
2021/07/27 00:14:04;;;;;;;;;;;18.20;99.90;;;-145.59;100.00;63944.34;5058230;28;19929;-60
2021/07/27 00:16:33;;;;;;;;;;;18.10;99.90;;;-145.59;100.00;63944.34;5057983;28;19931;-59
2021/07/27 00:18:59;;;;;;;;;;;18.10;99.90;;;-145.59;100.00;63944.34;5057934;28;20057;-67
2021/07/27 00:21:24;;;;;;;;;;;18.10;99.90;;;-145.59;100.00;63944.34;5076160;28;19929;-59
2021/07/27 00:23:50;;;;;;;;;;;18.10;99.90;;;-145.59;100.00;63944.34;5091780;28;20297;-62
2021/07/27 00:26:16;;;;;;;;;;;18.10;99.90;;;-145.59;100.00;63944.34;5075879;28;19927;-61
2021/07/27 00:28:42;;;;;;;;;;;18.10;99.90;;;-145.59;100.00;63944.34;5075734;28;19921;-58
2021/07/27 00:31:18;;;;;;;;;;;18.10;99.90;;;-145.59;100.00;63944.34;5057582;28;19927;-67
2021/07/27 00:33:45;;;;;;;;;;;18.10;99.90;;;-145.59;100.00;63944.34;5057330;28;19917;-59
2021/07/27 00:36:11;;;;;;;;;;;18.10;99.90;;;-145.59;100.00;63944.34;5075754;28;19928;-63
2021/07/27 00:38:36;;;;;;;;;;;18.20;99.90;;;-145.59;100.00;63944.34;5041065;28;20004;-62
2021/07/27 00:41:02;;;;;;;;;;;18.20;99.90;;;-145.59;100.00;63944.34;5074372;28;20359;-63
2021/07/27 00:43:28;;;;;;;;;;;18.20;99.90;;;-145.59;100.00;63944.34;5075905;28;19947;-63
2021/07/27 00:45:54;;;;;;;;;;;18.30;99.90;;;-145.59;100.00;63944.34;5040869;28;19927;-63
2021/07/27 00:48:19;;;;;;;;;;;18.30;99.90;;;-145.59;100.00;63944.34;5057844;28;19925;-62
2021/07/27 00:50:45;;;;;;;;;;;18.30;99.90;;;-145.59;100.00;63944.34;5057311;28;19927;-61
2021/07/27 00:53:11;;;;;;;;;;;18.30;99.90;;;-145.59;100.00;63944.34;5040847;28;19928;-63
2021/07/27 00:55:39;;;;;;;;;;;18.30;99.90;;;-145.59;100.00;63944.34;5057499;28;20069;-60
2021/07/27 00:58:04;;;;;;;;;;;18.30;99.90;;;-145.59;100.00;63944.34;5057734;28;19969;-60
2021/07/27 01:00:30;;;;;;;;;;;18.40;99.90;;;-145.59;100.00;63944.34;5057554;28;19921;-63
2021/07/27 01:02:56;;;;;;;;;;;18.30;99.90;;;-145.59;100.00;63944.34;5040822;28;20389;-64
2021/07/27 01:05:23;;;;;;;;;;;18.30;99.90;;;-145.59;100.00;63944.34;5075701;28;19920;-63
2021/07/27 01:07:49;;;;;;;;;;;18.30;99.90;;;-145.59;100.00;63944.34;5075032;28;20300;-64
2021/07/27 01:10:18;;;;;;;;;;;18.30;99.90;;;-145.59;100.00;63944.34;5057190;28;20444;-63
2021/07/27 01:12:48;;;;;;;;;;;18.30;99.90;;;-145.59;100.00;63944.34;5040773;28;20401;-66
2021/07/27 01:15:14;;;;;;;;;;;18.30;99.90;;;-145.59;100.00;63944.34;5074780;28;19921;-68
2021/07/27 01:17:41;;;;;;;;;;;18.30;99.90;;;-145.59;100.00;63944.34;5039954;28;20015;-60
2021/07/27 01:44:45;;;;;;;;;;;18.00;99.90;;;-145.59;100.00;63944.34;5059637;28;19944;-65
2021/07/27 01:47:15;;;;;;;;;;;17.90;99.90;;;-145.59;100.00;63944.34;5058345;28;19960;-63
2021/07/27 01:49:41;;;;;;;;;;;17.90;99.90;;;-145.59;100.00;63944.34;5074193;28;20015;-67
2021/07/27 01:52:10;;;;;;;;;;;17.90;99.90;;;-145.59;100.00;63944.34;5074074;28;19927;-60
2021/07/27 01:54:45;;;;;;;;;;;17.90;99.90;;;-145.59;100.00;63944.34;5056672;28;19923;-60
2021/07/27 01:57:12;;;;;;;;;;;17.80;99.90;;;-145.59;100.00;63944.34;5056050;28;19917;-65
2021/07/27 01:59:38;;;;;;;;;;;17.70;99.90;;;-145.59;100.00;63944.34;5056574;28;19920;-62
2021/07/27 02:02:08;;;;;;;;;;;17.70;99.90;;;-145.59;100.00;63944.34;5056232;28;19950;-62
2021/07/27 02:04:34;;;;;;;;;;;17.70;99.90;;;-145.59;100.00;63944.34;5040000;28;20011;-63
2021/07/27 02:06:59;;;;;;;;;;;17.60;99.90;;;-145.59;100.00;63944.34;5055830;28;20320;-63
2021/07/27 02:09:39;;;;;;;;;;;17.70;99.90;;;-145.59;100.00;63944.34;5055963;28;20350;-64
2021/07/27 02:12:05;;;;;;;;;;;17.70;99.90;;;-145.59;100.00;63944.34;5040130;28;19921;-63
2021/07/27 02:17:14;;;;;;;;;;;17.70;99.90;;;-145.59;100.00;63944.34;5087096;28;19927;-63
2021/07/27 02:19:41;;;;;;;;;;;17.70;99.90;;;-145.59;100.00;63944.34;5055678;28;19924;-64
2021/07/27 02:22:07;;;;;;;;;;;17.70;99.90;;;-145.59;100.00;63944.34;5055977;28;19927;-63
2021/07/27 02:24:35;;;;;;;;;;;17.70;99.90;;;-145.59;100.00;63944.34;5055813;28;19920;-63
2021/07/27 02:27:00;;;;;;;;;;;17.60;99.90;;;-145.59;100.00;63944.34;5055748;28;19967;-62
2021/07/27 02:29:26;;;;;;;;;;;17.60;99.90;;;-145.59;100.00;63944.34;5055551;28;19921;-65
2021/07/27 02:31:52;;;;;;;;;;;17.60;99.90;;;-145.59;100.00;63944.34;5073502;28;20015;-67
2021/07/27 02:34:17;;;;;;;;;;;17.60;99.90;;;-145.59;100.00;63944.34;5055589;28;19927;-66
2021/07/27 02:36:43;;;;;;;;;;;17.50;99.90;;;-145.59;100.00;63944.34;5038986;28;19965;-67
2021/07/27 02:39:09;;;;;;;;;;;17.60;99.90;;;-145.59;100.00;63944.34;5022494;28;20400;-66
2021/07/27 02:41:34;;;;;;;;;;;17.70;99.90;;;-145.59;100.00;63944.34;5055421;28;19916;-67
2021/07/27 02:44:00;;;;;;;;;;;17.60;99.90;;;-145.59;100.00;63944.34;5055454;28;19924;-66
2021/07/27 02:46:27;;;;;;;;;;;17.70;99.90;;;-145.59;100.00;63944.34;5055649;28;19912;-66
2021/07/27 02:48:52;;;;;;;;;;;17.70;99.90;;;-145.59;100.00;63944.34;5022519;28;19964;-68
2021/07/27 02:51:18;;;;;;;;;;;17.70;99.90;;;-145.59;100.00;63944.34;5073450;28;19924;-67
2021/07/27 02:53:44;;;;;;;;;;;17.70;99.90;;;-145.59;100.00;63944.34;5073524;28;19924;-66
2021/07/27 02:56:20;;;;;;;;;;;17.70;99.90;;;-145.59;100.00;63944.34;5075669;28;20289;-66
2021/07/27 02:58:46;;;;;;;;;;;17.80;99.90;;;-145.59;100.00;63944.34;5059511;28;19920;-67
2021/07/27 03:01:11;;;;;;;;;;;17.80;99.90;;;-145.59;100.00;63944.34;5059837;28;19961;-70
2021/07/27 03:03:37;;;;;;;;;;;17.80;99.90;;;-145.59;100.00;63944.34;5093452;28;20264;-65
2021/07/27 03:06:03;;;;;;;;;;;17.80;99.90;;;-145.59;100.00;63944.34;5042764;28;19927;-68
2021/07/27 03:11:14;;;;;;;;;;;17.80;99.90;;;-145.59;100.00;63944.34;5062679;28;19944;-67
2021/07/27 03:13:42;;;;;;;;;;;17.80;99.90;;;-145.59;100.00;63944.34;5042757;28;20414;-69
2021/07/27 03:16:07;;;;;;;;;;;17.80;99.90;;;-145.59;100.00;63944.34;5059326;28;19969;-68
2021/07/27 03:18:33;;;;;;;;;;;17.80;99.90;;;-145.59;100.00;63944.34;5042458;28;19924;-65
2021/07/27 03:20:59;;;;;;;;;;;17.80;99.90;;;-145.59;100.00;63944.34;5042471;28;20007;-63
2021/07/27 03:23:28;;;;;;;;;;;17.70;99.90;;;-145.59;100.00;63944.34;5076847;28;20003;-65
2021/07/27 03:25:54;;;;;;;;;;;17.70;99.90;;;-145.59;100.00;63944.34;5059216;28;19917;-65
2021/07/27 03:28:20;;;;;;;;;;;17.60;99.90;;;-145.59;100.00;63944.34;5059010;28;20412;-66
2021/07/27 03:30:45;;;;;;;;;;;17.60;99.90;;;-145.59;100.00;63944.34;5059458;28;19927;-63
2021/07/27 03:33:14;;;;;;;;;;;17.50;99.90;;;-145.59;100.00;63944.34;5042448;28;20346;-66
2021/07/27 03:35:40;;;;;;;;;;;17.40;99.90;;;-145.59;100.00;63944.34;5077004;28;20008;-63
2021/07/27 03:38:05;;;;;;;;;;;17.30;99.90;;;-145.59;100.00;63944.34;5042165;28;19927;-68
2021/07/27 03:40:34;;;;;;;;;;;17.30;99.90;;;-145.59;100.00;63944.34;5042115;28;19916;-70
2021/07/27 03:43:00;;;;;;;;;;;17.20;99.90;;;-145.59;100.00;63944.34;5058702;28;20032;-65
2021/07/27 03:45:26;;;;;;;;;;;17.20;99.90;;;-145.59;100.00;63944.34;5076548;28;20019;-68
2021/07/27 03:47:52;;;;;;;;;;;17.20;99.90;;;-145.59;100.00;63944.34;5042005;28;19924;-66
2021/07/27 03:50:18;;;;;;;;;;;17.20;99.90;;;-145.59;100.00;63944.34;5041952;28;19917;-63
2021/07/27 03:52:44;;;;;;;;;;;17.20;99.90;;;-145.59;100.00;63944.34;5076413;28;20278;-59
2021/07/27 03:55:10;;;;;;;;;;;17.20;99.90;;;-145.59;100.00;63944.34;5058862;28;19989;-61
2021/07/27 03:57:36;;;;;;;;;;;17.20;99.90;;;-145.59;100.00;63944.34;5076265;28;20034;-62
2021/07/27 04:00:03;;;;;;;;;;;17.20;99.90;;;-145.59;100.00;63944.34;5076400;28;19920;-61
2021/07/27 04:02:28;;;;;;;;;;;17.20;99.90;;;-145.59;100.00;63944.34;5041783;28;19920;-60
2021/07/27 04:04:54;;;;;;;;;;;17.20;99.90;;;-145.59;100.00;63944.34;5076270;28;19966;-60
2021/07/27 04:07:20;;;;;;;;;;;17.10;99.90;;;-145.59;100.00;63944.34;5058185;28;19924;-62
2021/07/27 04:09:46;;;;;;;;;;;17.10;99.90;;;-145.59;100.00;63944.34;5058287;28;19920;-60
2021/07/27 04:12:12;;;;;;;;;;;17.10;99.90;;;-145.59;100.00;63944.34;5057738;28;19920;-61
2021/07/27 04:14:37;;;;;;;;;;;17.10;99.90;;;-145.59;100.00;63944.34;5058151;28;20001;-63
2021/07/27 04:17:03;;;;;;;;;;;17.10;99.90;;;-145.59;100.00;63944.34;5058118;28;19928;-63
2021/07/27 04:19:29;;;;;;;;;;;17.10;99.90;;;-145.59;100.00;63944.34;5075868;28;19925;-64
2021/07/27 04:21:54;;;;;;;;;;;17.10;99.90;;;-145.59;100.00;63944.34;5076269;28;19920;-65
2021/07/27 04:24:20;;;;;;;;;;;17.10;99.90;;;-145.59;100.00;63944.34;5041336;28;19921;-65
2021/07/27 04:26:49;;;;;;;;;;;17.20;99.90;;;-145.59;100.00;63944.34;5075953;28;19916;-65
2021/07/27 04:29:18;;;;;;;;;;;17.20;99.90;;;-145.59;100.00;63944.34;5058008;28;19916;-64
2021/07/27 04:31:50;;;;;;;;;;;17.20;99.90;;;-145.59;100.00;63944.34;5058040;28;19923;-65
2021/07/27 04:34:16;;;;;;;;;;;17.20;99.90;;;-145.59;100.00;63944.34;5057933;28;19912;-64
2021/07/27 04:36:42;;;;;;;;;;;17.30;99.90;;;-145.59;100.00;63944.34;5075678;28;19927;-65
2021/07/27 04:39:08;;;;;;;;;;;17.30;99.90;;;-145.59;100.00;63944.34;5074379;28;20089;-62
2021/07/27 04:41:34;;;;;;;;;;;17.40;99.90;;;-145.59;100.00;63944.34;5091213;28;19916;-62
2021/07/27 04:44:00;;;;;;;;;;;17.50;99.90;;;-145.59;100.00;63944.34;5057690;28;20019;-63
2021/07/27 04:46:25;;;;;;;;;;;17.50;99.90;;;-145.59;100.00;63944.34;5091061;28;20282;-60
2021/07/27 04:48:52;;;;;;;;;;;17.60;99.90;;;-145.59;100.00;63944.34;5057849;28;19920;-62
2021/07/27 04:51:18;;;;;;;;;;;17.70;99.90;;;-145.59;100.00;63944.34;5057684;28;19917;-62
2021/07/27 04:53:44;;;;;;;;;;;17.70;99.90;;;-145.59;100.00;63944.34;5074043;28;20272;-61
2021/07/27 04:56:10;;;;;;;;;;;17.90;99.90;;;-145.59;100.00;63944.34;5024266;28;19924;-63
2021/07/27 04:58:36;;;;;;;;;;;18.00;99.90;;;-145.59;100.00;63944.34;5073757;28;20391;-63
2021/07/27 05:01:02;;;;;;;;;;;18.20;99.90;;;-145.59;100.00;63944.34;5057179;28;19990;-62
2021/07/27 05:03:31;;;;;;;;;;;18.30;99.90;;;-145.59;100.00;63944.34;5057255;28;19951;-66
2021/07/27 05:05:57;;;;;;;;;;;18.40;99.90;;;-145.59;100.00;63944.34;5057116;28;19925;-64
2021/07/27 05:08:23;;;;;;;;;;;18.50;99.90;;;-145.59;100.00;63944.34;5057042;28;20299;-66
2021/07/27 05:10:49;;;;;;;;;;;18.60;99.90;;;-145.59;100.00;63944.34;5075044;28;19920;-66
2021/07/27 05:13:14;;;;;;;;;;;18.60;99.90;;;-145.59;100.00;63944.34;5056881;28;19979;-67
2021/07/27 05:15:40;;;;;;;;;;;18.60;99.90;;;-145.59;100.00;63944.34;5040277;28;19931;-65
2021/07/27 05:18:06;;;;;;;;;;;18.70;99.90;;;-145.59;100.00;63944.34;5039600;28;20053;-67
2021/07/27 05:20:32;;;;;;;;;;;18.80;99.90;;;-145.59;100.00;63944.34;5073591;28;20298;-66
2021/07/27 05:22:58;;;;;;;;;;;18.90;99.90;;;-145.59;100.00;63944.34;5040205;28;19912;-65
2021/07/27 05:25:24;;;;;;;;;;;18.90;99.90;;;-145.59;100.00;63944.34;5040287;28;19973;-65
2021/07/27 05:27:50;;;;;;;;;;;18.90;99.90;;;-145.59;100.00;63944.34;5056813;28;19917;-65
2021/07/27 05:30:17;;;;;;;;;;;18.80;99.90;;;-145.59;100.00;63944.34;5057327;28;20364;-65
2021/07/27 05:32:43;;;;;;;;;;;18.80;99.90;;;-145.59;100.00;63944.34;5056642;28;19946;-68
2021/07/27 05:35:10;;;;;;;;;;;18.80;99.90;;;-145.59;100.00;63944.34;5075151;28;19974;-65
2021/07/27 05:37:36;;;;;;;;;;;18.90;99.90;;;-145.59;100.00;63944.34;5074404;28;20356;-62
2021/07/27 05:40:04;;;;;;;;;;;19.00;99.90;;;-145.59;100.00;63944.34;5090527;28;19921;-60
2021/07/27 05:42:30;;;;;;;;;;;19.10;99.90;;;-145.59;100.00;63944.34;5074424;28;20302;-60
2021/07/27 05:44:56;;;;;;;;;;;19.10;99.90;;;-145.59;100.00;63944.34;5056659;28;19927;-64
2021/07/27 05:47:22;;;;;;;;;;;19.10;99.90;;;-145.59;100.00;63944.34;5074358;28;19917;-63
2021/07/27 05:49:47;;;;;;;;;;;19.10;99.90;;;-145.59;100.00;63944.34;5056330;28;20325;-60
2021/07/27 05:52:13;;;;;;;;;;;19.10;99.90;;;-145.59;100.00;63944.34;5074242;28;19920;-64
2021/07/27 05:54:40;;;;;;;;;;;19.30;99.90;;;-145.59;100.00;63944.34;5039770;28;19916;-63
2021/07/27 05:57:13;;;;;;;;;;;19.40;99.90;;;-145.59;100.00;63944.34;5056819;28;19917;-63
2021/07/27 05:59:40;;;;;;;;;;;19.40;99.90;;;-145.59;100.00;63944.34;5056431;28;19924;-63
2021/07/27 06:02:06;;;;;;;;;;;19.50;99.90;;;-145.59;100.00;63944.34;5056079;28;19923;-63
2021/07/27 06:04:31;;;;;;;;;;;19.50;99.90;;;-145.59;100.00;63944.34;5039590;28;19920;-63
2021/07/27 06:06:57;;;;;;;;;;;19.70;99.90;;;-145.59;100.00;63944.34;5039631;28;19926;-63
2021/07/27 06:09:23;;;;;;;;;;;19.70;99.90;;;-145.59;100.00;63944.34;5056203;28;19920;-64
2021/07/27 06:11:48;;;;;;;;;;;19.70;99.90;;;-145.59;100.00;63944.34;5039584;28;19921;-67
2021/07/27 06:14:14;;;;;;;;;;;19.80;99.90;;;-145.59;100.00;63944.34;5055998;28;19970;-66
2021/07/27 06:16:40;;;;;;;;;;;19.90;99.90;;;-145.59;100.00;63944.34;5056013;28;19924;-67
2021/07/27 06:19:07;;;;;;;;;;;20.00;99.90;;;-145.59;100.00;63944.34;5052504;28;20228;-68
2021/07/27 06:21:35;;;;;;;;;;;20.10;99.90;;;-145.59;100.00;63944.34;5036110;28;19967;-68
2021/07/27 06:24:01;;;;;;;;;;;20.20;99.90;;;-145.59;100.00;63944.34;5052518;28;19921;-67
2021/07/27 06:26:26;;;;;;;;;;;20.40;99.90;;;-145.59;100.00;63944.34;5035866;28;19921;-67
2021/07/27 06:28:52;;;;;;;;;;;20.20;99.90;;;-145.59;100.00;63944.34;5035761;28;19916;-66
2021/07/27 06:31:18;;;;;;;;;;;20.20;99.90;;;-145.59;100.00;63944.34;5035075;28;20282;-67
2021/07/27 06:33:45;;;;;;;;;;;20.20;99.90;;;-145.59;100.00;63944.34;5052489;28;19921;-68
2021/07/27 06:36:11;;;;;;;;;;;20.40;99.90;;;-145.59;100.00;63944.34;5054128;28;19925;-69
2021/07/27 06:38:38;;;;;;;;;;;20.50;99.90;;;-145.59;100.00;63944.34;5053830;28;19970;-66
2021/07/27 06:41:08;;;;;;;;;;;20.70;99.90;;;-145.59;100.00;63944.34;5052381;28;19975;-69
2021/07/27 06:43:34;;;;;;;;;;;20.90;99.90;;;-145.59;100.00;63944.34;5052589;28;19955;-69
2021/07/27 06:46:00;;;;;;;;;;;21.00;99.90;;;-145.59;100.00;63944.34;5052361;28;19921;-66
2021/07/27 06:48:29;;;;;;;;;;;21.20;99.90;;;-145.59;100.00;63944.34;5053428;28;19924;-65
2021/07/27 06:50:55;;;;;;;;;;;21.20;99.90;;;-145.59;100.00;63944.34;5053345;28;19917;-66
2021/07/27 06:53:21;;;;;;;;;;;21.30;99.90;;;-145.59;100.00;63944.34;5035652;28;20374;-65
2021/07/27 06:55:46;;;;;;;;;;;21.20;99.90;;;-145.59;100.00;63944.34;5052343;28;19921;-63
2021/07/27 06:58:12;;;;;;;;;;;21.30;99.90;;;-145.59;100.00;63944.34;5053346;28;19921;-61
2021/07/27 07:00:39;;;;;;;;;;;21.30;99.90;;;-145.59;100.00;63944.34;5035499;28;19921;-59
2021/07/27 07:03:06;;;;;;;;;;;21.40;99.90;;;-145.59;100.00;63944.34;5035521;28;19916;-59
2021/07/27 07:05:32;;;;;;;;;;;21.30;99.90;;;-145.59;100.00;63944.34;5035693;28;19928;-62
2021/07/27 07:07:57;;;;;;;;;;;21.30;99.90;;;-145.59;100.00;63944.34;5035535;28;19920;-61
2021/07/27 07:10:23;;;;;;;;;;;21.20;99.90;;;-145.59;100.00;63944.34;5052168;28;19966;-59
2021/07/27 07:12:49;;;;;;;;;;;21.10;99.90;;;-145.59;100.00;63944.34;5051858;28;19925;-60
2021/07/27 07:15:15;;;;;;;;;;;21.10;99.90;;;-145.59;100.00;63944.34;5053349;28;19954;-61
2021/07/27 07:17:40;;;;;;;;;;;21.20;99.90;;;-145.59;100.00;63944.34;5055264;28;19964;-59
2021/07/27 07:20:07;;;;;;;;;;;21.20;99.90;;;-145.59;100.00;63944.34;5073379;28;20317;-61
2021/07/27 07:22:33;;;;;;;;;;;21.30;99.90;;;-145.59;100.00;63944.34;5055292;28;19921;-60
2021/07/27 07:24:58;;;;;;;;;;;21.30;99.90;;;-145.59;100.00;63944.34;5073054;28;19928;-60
2021/07/27 07:27:24;;;;;;;;;;;21.40;99.90;;;-145.59;100.00;63944.34;5055124;28;20405;-61
2021/07/27 07:29:59;;;;;;;;;;;21.50;99.90;;;-145.59;100.00;63944.34;5055203;28;19924;-60
2021/07/27 07:32:25;;;;;;;;;;;21.50;99.90;;;-145.59;100.00;63944.34;5055650;28;20434;-62
2021/07/27 07:34:51;;;;;;;;;;;21.50;99.90;;;-145.59;100.00;63944.34;5055222;28;19927;-62
2021/07/27 07:37:17;;;;;;;;;;;21.60;99.90;;;-145.59;100.00;63944.34;5055047;28;20306;-61
2021/07/27 07:39:42;;;;;;;;;;;21.80;99.90;;;-145.59;100.00;63944.34;5055028;28;19920;-60
2021/07/27 07:42:08;;;;;;;;;;;22.10;99.90;;;-145.59;100.00;63944.34;5075154;28;19924;-62
2021/07/27 07:44:35;;;;;;;;;;;22.30;99.90;;;-145.59;100.00;63944.34;5076551;28;19920;-61
2021/07/27 07:47:01;;;;;;;;;;;22.50;99.90;;;-145.59;100.00;63944.34;5042245;28;19916;-65
2021/07/27 07:49:27;;;;;;;;;;;22.70;99.90;;;-145.59;100.00;63944.34;5059331;28;19920;-62
2021/07/27 07:51:56;;;;;;;;;;;22.70;99.90;;;-145.59;100.00;63944.34;5042059;28;19927;-64
2021/07/27 07:54:24;;;;;;;;;;;22.80;99.90;;;-145.59;100.00;63944.34;5076501;28;19916;-63
2021/07/27 07:56:50;;;;;;;;;;;22.90;99.90;;;-145.59;100.00;63944.34;5058922;28;20166;-60
2021/07/27 07:59:16;;;;;;;;;;;23.00;99.90;;;-145.59;100.00;63944.34;5058530;28;19921;-62
2021/07/27 08:01:45;;;;;;;;;;;23.00;99.90;;;-145.59;100.00;63944.34;5058675;28;19920;-61
2021/07/27 08:04:16;;;;;;;;;;;23.00;99.90;;;-145.59;100.00;63944.34;5059045;28;19928;-62
2021/07/27 08:06:42;;;;;;;;;;;23.10;99.90;;;-145.59;100.00;63944.34;5025392;28;20019;-62
2021/07/27 08:09:08;;;;;;;;;;;23.10;99.90;;;-145.59;100.00;63944.34;5058574;28;19912;-60
2021/07/27 08:11:34;;;;;;;;;;;23.20;99.90;;;-145.59;100.00;63944.34;5041468;28;19917;-60
2021/07/27 08:14:00;;;;;;;;;;;23.00;99.90;;;-145.59;100.00;63944.34;5041721;28;20501;-67
2021/07/27 08:16:27;;;;;;;;;;;23.00;99.90;;;-145.59;100.00;63944.34;5041414;28;19920;-67
2021/07/27 08:18:52;;;;;;;;;;;23.10;99.90;;;-145.59;100.00;63944.34;5057866;28;19932;-67
2021/07/27 08:21:23;;;;;;;;;;;23.20;99.90;;;-145.59;100.00;63944.34;5041295;28;19920;-66
2021/07/27 08:23:48;;;;;;;;;;;23.30;99.90;;;-145.59;100.00;63944.34;5075998;28;19921;-68
2021/07/27 08:26:14;;;;;;;;;;;23.30;99.90;;;-145.59;100.00;63944.34;5091576;28;19920;-68
2021/07/27 08:28:42;;;;;;;;;;;23.40;99.90;;;-145.59;100.00;63944.34;5041257;28;19920;-68
2021/07/27 08:31:09;;;;;;;;;;;23.50;99.90;;;-145.59;100.00;63944.34;5041579;28;19917;-68
2021/07/27 08:33:34;;;;;;;;;;;23.60;99.90;;;-145.59;100.00;63944.34;5058588;28;19944;-67
2021/07/27 08:36:00;;;;;;;;;;;23.80;99.90;;;-145.59;100.00;63944.34;5074262;28;19924;-68
2021/07/27 08:38:26;;;;;;;;;;;23.80;99.90;;;-145.59;100.00;63944.34;5075684;28;19921;-67
2021/07/27 08:40:57;;;;;;;;;;;23.80;99.90;;;-145.59;100.00;63944.34;5075896;28;19921;-66
2021/07/27 08:43:23;;;;;;;;;;;23.70;99.90;;;-145.59;100.00;63944.34;5076023;28;20271;-67
2021/07/27 08:45:50;;;;;;;;;;;23.70;99.90;;;-145.59;100.00;63944.34;5075512;28;19966;-66
2021/07/27 08:48:16;;;;;;;;;;;23.70;99.90;;;-145.59;100.00;63944.34;5075425;28;19921;-67
2021/07/27 08:50:44;;;;;;;;;;;23.60;99.90;;;-145.59;100.00;63944.34;5057559;28;19920;-66
2021/07/27 08:53:11;;;;;;;;;;;23.80;99.90;;;-145.59;100.00;63944.34;5074484;28;19971;-69
2021/07/27 08:55:37;;;;;;;;;;;23.70;99.90;;;-145.59;100.00;63944.34;5057444;28;19921;-67
2021/07/27 08:58:03;;;;;;;;;;;23.70;99.90;;;-145.59;100.00;63944.34;5057557;28;19928;-65
2021/07/27 09:00:30;;;;;;;;;;;23.70;99.90;;;-145.59;100.00;63944.34;5057308;28;20392;-65
2021/07/27 09:03:09;;;;;;;;;;;23.70;99.90;;;-145.59;100.00;63944.34;5040743;28;19966;-62
2021/07/27 09:05:35;;;;;;;;;;;23.60;99.90;;;-145.59;100.00;63944.34;5075170;28;20019;-66
2021/07/27 09:08:02;;;;;;;;;;;23.50;99.90;;;-145.59;100.00;63944.34;5040478;28;19958;-65
2021/07/27 09:10:30;;;;;;;;;;;23.40;99.90;;;-145.59;100.00;63944.34;5057424;28;20011;-64
2021/07/27 09:13:00;;;;;;;;;;;23.50;99.90;;;-145.59;100.00;63944.34;5074910;28;19920;-62
2021/07/27 09:15:28;;;;;;;;;;;23.60;99.90;;;-145.59;100.00;63944.34;5057275;28;19916;-63
2021/07/27 09:17:59;;;;;;;;;;;23.70;99.90;;;-145.59;100.00;63944.34;5040251;28;20362;-64
2021/07/27 09:20:28;;;;;;;;;;;23.90;99.90;;;-145.59;100.00;63944.34;5074773;28;19921;-64
2021/07/27 09:22:54;;;;;;;;;;;24.30;99.90;;;-145.59;100.00;63944.34;5057539;28;20007;-63
2021/07/27 09:25:24;;;;;;;;;;;24.80;99.90;;;-145.59;100.00;63944.34;5075105;28;20436;-64
2021/07/27 09:28:10;;;;;;;;;;;25.00;99.90;;;-145.59;100.00;63944.34;5057095;28;19970;-63
2021/07/27 09:30:38;;;;;;;;;;;25.00;99.90;;;-145.59;100.00;63944.34;5074729;28;19916;-61
2021/07/27 09:33:05;;;;;;;;;;;24.80;99.90;;;-145.59;100.00;63944.34;5040152;28;19921;-60
2021/07/27 09:35:31;;;;;;;;;;;24.70;99.90;;;-145.59;100.00;63944.34;5056465;28;19921;-66
2021/07/27 09:38:18;;;;;;;;;;;24.60;99.90;;;-145.59;100.00;63944.34;5056890;28;19962;-62
2021/07/27 09:41:00;;;;;;;;;;;24.50;99.90;;;-145.59;100.00;63944.34;5041859;28;19923;-60
2021/07/27 09:43:26;;;;;;;;;;;24.50;99.90;;;-145.59;100.00;63944.34;5057829;28;19931;-60
2021/07/27 09:45:56;;;;;;;;;;;24.50;99.90;;;-145.59;100.00;63944.34;5056441;28;19927;-62
2021/07/27 09:48:23;;;;;;;;;;;24.40;99.90;;;-145.59;100.00;63944.34;5056624;28;20309;-63
2021/07/27 09:50:50;;;;;;;;;;;24.50;99.90;;;-145.59;100.00;63944.34;5074560;28;19917;-65
2021/07/27 09:53:17;;;;;;;;;;;24.60;99.90;;;-145.59;100.00;63944.34;5039890;28;20451;-64
2021/07/27 09:55:43;;;;;;;;;;;24.80;99.90;;;-145.59;100.00;63944.34;5039841;28;19916;-65
2021/07/27 09:58:13;;;;;;;;;;;24.90;99.90;;;-145.59;100.00;63944.34;5039611;28;20443;-65
2021/07/27 10:00:50;;;;;;;;;;;25.00;99.90;;;-145.59;100.00;63944.34;5039779;28;20285;-62
2021/07/27 10:03:27;;;;;;;;;;;25.20;99.90;;;-145.59;100.00;63944.34;5074245;28;19916;-64
2021/07/27 10:05:55;;;;;;;;;;;25.20;99.90;;;-145.59;100.00;63944.34;5056879;28;19917;-64
2021/07/27 10:08:34;;;;;;;;;;;25.20;99.90;;;-145.59;100.00;63944.34;5056213;28;20016;-63
2021/07/27 10:11:13;;;;;;;;;;;25.00;99.90;;;-145.59;100.00;63944.34;5056069;28;19967;-65
2021/07/27 10:13:45;;;;;;;;;;;24.70;99.90;;;-145.59;100.00;63944.34;5056590;28;19924;-66
2021/07/27 10:16:23;;;;;;;;;;;24.50;99.90;;;-145.59;100.00;63944.34;5056792;28;20011;-63
2021/07/27 10:18:52;;;;;;;;;;;24.40;99.90;;;-145.59;100.00;63944.34;5039258;28;19974;-65
2021/07/27 10:21:25;;;;;;;;;;;24.30;99.90;;;-145.59;100.00;63944.34;5072772;28;19920;-64
2021/07/27 10:23:53;;;;;;;;;;;24.00;99.90;;;-145.59;100.00;63944.34;5055873;28;19924;-64
2021/07/27 10:26:29;;;;;;;;;;;23.50;99.90;;;-145.59;100.00;63944.34;5039560;28;19923;-66
2021/07/27 10:28:56;;;;;;;;;;;23.00;99.90;;;-145.59;100.00;63944.34;5055870;28;20001;-63
2021/07/27 10:31:41;;;;;;;;;;;22.50;99.90;;;-145.59;100.00;63944.34;5039319;28;19924;-61
2021/07/27 10:34:08;;;;;;;;;;;22.10;99.90;;;-145.59;100.00;63944.34;5073891;28;20442;-65
2021/07/27 10:36:39;;;;;;;;;;;21.70;99.90;;;-145.59;100.00;63944.34;5039293;28;19938;-61
2021/07/27 10:39:18;;;;;;;;;;;21.30;99.90;;;-145.59;100.00;63944.34;5056405;28;19924;-63
2021/07/27 10:41:49;;;;;;;;;;;21.00;99.90;;;-145.59;100.00;63944.34;5073597;28;19967;-61
2021/07/27 10:44:16;;;;;;;;;;;20.60;99.90;;;-145.59;100.00;63944.34;5056292;28;19923;-62
2021/07/27 10:46:46;;;;;;;;;;;20.50;99.90;;;-145.59;100.00;63944.34;5073453;28;20389;-65
2021/07/27 10:49:21;;;;;;;;;;;20.30;99.90;;;-145.59;100.00;63944.34;5022712;28;19920;-65
2021/07/27 10:51:47;;;;;;;;;;;20.30;99.90;;;-145.59;100.00;63944.34;5073598;28;20419;-68
2021/07/27 10:54:24;;;;;;;;;;;20.30;99.90;;;-145.59;100.00;63944.34;5039627;28;20015;-67
2021/07/27 10:57:02;;;;;;;;;;;20.40;99.90;;;-145.59;100.00;63944.34;5040039;28;19956;-71
2021/07/27 10:59:31;;;;;;;;;;;20.60;99.90;;;-145.59;100.00;63944.34;5056806;28;19955;-67
2021/07/27 11:02:01;;;;;;;;;;;21.00;99.90;;;-145.59;100.00;63944.34;5056938;28;19935;-67
2021/07/27 11:04:31;;;;;;;;;;;21.60;99.90;;;-145.59;100.00;63944.34;5056315;28;19927;-69
2021/07/27 11:07:14;;;;;;;;;;;22.20;99.90;;;-145.59;100.00;63944.34;5039032;28;19912;-65
2021/07/27 11:09:52;;;;;;;;;;;22.70;99.90;;;-145.59;100.00;63944.34;5055776;28;19969;-67
2021/07/27 11:12:28;;;;;;;;;;;23.30;99.90;;;-145.59;100.00;63944.34;5039184;28;20058;-68
2021/07/27 11:15:21;;;;;;;;;;;24.00;99.90;;;-145.59;100.00;63944.34;5056057;28;19920;-67
2021/07/27 11:17:57;;;;;;;;;;;24.60;99.90;;;-145.59;100.00;63944.34;5060284;28;19927;-68
2021/07/27 11:20:30;;;;;;;;;;;25.10;99.90;;;-145.59;100.00;63944.34;5059329;28;19916;-68
2021/07/27 11:23:13;;;;;;;;;;;25.50;99.90;;;-145.59;100.00;63944.34;5059065;28;19921;-68
2021/07/27 11:25:39;;;;;;;;;;;25.70;99.90;;;-145.59;100.00;63944.34;5044944;28;19916;-69
2021/07/27 11:28:15;;;;;;;;;;;25.80;99.90;;;-145.59;100.00;63944.34;5059582;28;20281;-70